Time;durP1;ratioP1;P1;durP2;ratioP2;P2;SDS_P1;SDS_P2;PMS_P1;PMS_P2;Temp;Humidity;BMP_temperature;BMP_pressure;BME280_temperature;BME280_humidity;BME280_pressure;Samples;Min_cycle;Max_cycle;Signal;HPM_P1;HPM_P2
2021/12/17 00:01:13;;;;;;;7.03;5.25;;;;;;;5.06;88.40;101796.86;1688593;83;25825;-60
2021/12/17 00:03:48;;;;;;;6.17;4.65;;;;;;;5.07;88.28;101798.55;1685259;83;25791;-61
2021/12/17 00:06:41;;;;;;;7.78;5.15;;;;;;;5.09;88.25;101802.02;1675311;83;26102;-60
2021/12/17 00:08:56;;;;;;;6.28;4.85;;;;;;;5.10;88.25;101805.08;1660475;84;25478;-61
2021/12/17 00:11:26;;;;;;;8.18;5.33;;;;;;;5.07;88.19;101800.77;1639496;86;27529;-61
2021/12/17 00:13:56;;;;;;;6.50;4.67;;;;;;;5.07;88.26;101802.10;1638316;86;25491;-60
2021/12/17 00:16:27;;;;;;;8.35;5.03;;;;;;;5.08;88.07;101799.83;1644967;85;25850;-60
2021/12/17 00:48:22;;;;;;;7.60;5.60;;;;;;;5.16;87.03;101801.66;1633259;86;26181;-60
2021/12/17 00:49:05;;;;;;;10.43;5.72;;;;;;;5.17;86.92;101796.72;1633406;85;27497;-60
2021/12/17 00:54:29;;;;;;;9.13;6.40;;;;;;;5.18;86.68;101790.89;1645818;85;25901;-60
2021/12/17 00:57:14;;;;;;;8.03;6.12;;;;;;;5.15;86.43;101793.25;1641713;85;25744;-61
2021/12/17 00:59:46;;;;;;;11.33;6.65;;;;;;;5.15;86.39;101785.25;1672184;85;26128;-60
2021/12/17 01:02:18;;;;;;;9.68;6.35;;;;;;;5.16;86.42;101788.31;1665629;83;25902;-60
2021/12/17 01:04:51;;;;;;;9.60;7.03;;;;;;;5.17;86.26;101781.16;1656900;84;27672;-60
2021/12/17 01:07:22;;;;;;;9.50;6.70;;;;;;;5.14;86.08;101778.19;1654385;84;25805;-60
2021/12/17 01:09:52;;;;;;;11.63;8.05;;;;;;;5.14;85.92;101777.33;1639397;85;25773;-60
2021/12/17 01:12:22;;;;;;;10.88;7.65;;;;;;;5.15;85.94;101772.39;1662265;84;26612;-60
2021/12/17 01:15:13;;;;;;;10.75;7.22;;;;;;;5.14;85.64;101764.00;1660303;83;25853;-60
2021/12/17 01:17:50;;;;;;;10.15;7.22;;;;;;;5.11;85.35;101768.98;1626892;86;28495;-60
2021/12/17 01:38:12;;;;;;;14.33;7.65;;;;;;;5.03;84.52;101742.32;1626351;86;25827;-61
2021/12/17 01:42:39;;;;;;;12.95;9.30;;;;;;;5.02;84.48;101745.44;1648439;86;25752;-61
2021/12/17 01:45:10;;;;;;;18.17;8.68;;;;;;;4.99;84.18;101749.61;1647987;85;28333;-61
2021/12/17 01:47:39;;;;;;;14.05;8.68;;;;;;;4.96;84.10;101750.64;1656606;85;25815;-61
2021/12/17 02:01:11;;;;;;;13.13;9.18;;;;;;;4.94;84.04;101735.63;1607335;87;25849;-60
2021/12/17 02:03:38;;;;;;;14.38;9.45;;;;;;;4.97;83.94;101727.03;1625693;86;25776;-60
2021/12/17 02:06:05;;;;;;;14.38;9.48;;;;;;;4.99;83.82;101736.28;1633482;87;27194;-60
2021/12/17 02:08:34;;;;;;;14.03;9.40;;;;;;;4.98;83.75;101727.88;1640152;84;25902;-60
2021/12/17 02:22:01;;;;;;;15.60;10.60;;;;;;;4.88;82.68;101713.27;1662655;84;25789;-61
2021/12/17 02:30:08;;;;;;;16.25;9.98;;;;;;;4.90;82.62;101727.40;1659755;85;25748;-60
2021/12/17 02:32:28;;;;;;;16.15;10.03;;;;;;;4.90;82.59;101713.58;1634175;87;26170;-61
2021/12/17 02:35:03;;;;;;;10.72;8.88;;;;;;;4.90;82.25;101709.58;1664004;84;25892;-60
2021/12/17 02:37:29;;;;;;;16.67;9.38;;;;;;;4.87;81.64;101711.09;1656637;85;27575;-60
2021/12/17 02:48:09;;;;;;;13.75;10.03;;;;;;;4.81;81.74;101711.37;1655447;86;25847;-61
2021/12/17 02:50:50;;;;;;;16.73;9.88;;;;;;;4.81;81.63;101704.26;1651444;86;27493;-60
2021/12/17 02:53:19;;;;;;;12.75;8.40;;;;;;;4.81;81.33;101711.37;1638601;85;25823;-60
2021/12/17 02:56:00;;;;;;;15.50;9.30;;;;;;;4.83;81.21;101712.17;1644468;84;25662;-60
2021/12/17 02:58:30;;;;;;;16.17;9.50;;;;;;;4.84;81.15;101716.08;1663410;85;26068;-60
2021/12/17 03:00:58;;;;;;;15.28;9.08;;;;;;;4.83;80.91;101707.72;1670987;84;25854;-61
2021/12/17 03:03:33;;;;;;;12.13;9.08;;;;;;;4.83;80.41;101711.72;1638720;85;27405;-61
2021/12/17 03:06:01;;;;;;;14.98;9.35;;;;;;;4.80;79.54;101704.31;1662191;85;25862;-61
2021/12/17 03:08:29;;;;;;;13.03;9.10;;;;;;;4.81;79.70;101713.59;1670338;84;25821;-61
2021/12/17 03:10:59;;;;;;;17.45;9.78;;;;;;;4.78;79.73;101699.06;1687037;84;26080;-61
2021/12/17 03:13:30;;;;;;;13.55;10.05;;;;;;;4.77;79.45;101697.34;1665039;84;25850;-61
2021/12/17 03:16:11;;;;;;;15.38;10.10;;;;;;;4.79;79.62;101705.28;1661605;84;27579;-60
2021/12/17 03:24:04;;;;;;;17.00;9.43;;;;;;;4.79;79.33;101697.28;1674413;83;26202;-60
2021/12/17 03:26:32;;;;;;;13.70;9.63;;;;;;;4.79;79.48;101690.62;1681402;83;25796;-61
2021/12/17 03:29:06;;;;;;;13.35;9.05;;;;;;;4.81;79.42;101698.92;1679987;83;28157;-60
2021/12/17 03:31:34;;;;;;;15.28;10.10;;;;;;;4.82;79.18;101699.33;1677972;83;25795;-61
2021/12/17 03:36:43;;;;;;;15.55;9.58;;;;;;;4.74;78.89;101693.96;1682267;84;26108;-61
2021/12/17 03:39:11;;;;;;;13.58;9.00;;;;;;;4.69;78.65;101689.73;1660127;84;25856;-61
2021/12/17 03:41:39;;;;;;;17.73;10.32;;;;;;;4.67;78.67;101687.61;1668819;84;27467;-61
2021/12/17 03:44:09;;;;;;;17.55;9.15;;;;;;;4.64;78.45;101687.75;1639850;86;25785;-61
2021/12/17 03:46:56;;;;;;;18.45;10.10;;;;;;;4.62;78.20;101690.95;1604399;87;25542;-61
2021/12/17 03:49:29;;;;;;;15.93;10.53;;;;;;;4.63;78.69;101687.35;1644129;86;25782;-61
2021/12/17 03:52:06;;;;;;;17.70;9.48;;;;;;;4.62;78.40;101700.28;1632711;86;25932;-61
2021/12/17 03:54:38;;;;;;;13.48;9.45;;;;;;;4.65;78.62;101701.47;1666105;85;27518;-61
2021/12/17 03:57:10;;;;;;;14.03;10.40;;;;;;;4.63;78.16;101688.68;1650831;84;25849;-61
2021/12/17 03:59:36;;;;;;;16.48;9.45;;;;;;;4.66;78.52;101701.88;1671333;84;25760;-61
2021/12/17 04:02:04;;;;;;;19.42;9.85;;;;;;;4.64;78.36;101706.41;1633390;86;26669;-61
2021/12/17 04:04:33;;;;;;;15.25;9.10;;;;;;;4.63;78.33;101691.83;1643046;85;26011;-61
2021/12/17 04:07:07;;;;;;;16.25;10.60;;;;;;;4.65;78.65;101693.95;1633098;85;27477;-61
2021/12/17 04:09:38;;;;;;;15.07;9.70;;;;;;;4.67;78.60;101696.94;1677840;84;25826;-61
2021/12/17 04:12:14;;;;;;;16.87;10.23;;;;;;;4.69;78.67;101690.19;1681387;84;36608;-61
2021/12/17 04:14:51;;;;;;;16.40;10.28;;;;;;;4.74;78.65;101693.96;1684435;84;26117;-61
2021/12/17 04:17:25;;;;;;;14.80;9.90;;;;;;;4.70;78.15;101694.58;1674162;85;26565;-61
2021/12/17 04:19:52;;;;;;;14.40;9.70;;;;;;;4.65;78.09;101693.95;1673996;85;28198;-61
2021/12/17 04:22:22;;;;;;;13.20;9.28;;;;;;;4.66;78.25;101695.20;1673100;85;25893;-61
2021/12/17 04:24:55;;;;;;;15.55;9.48;;;;;;;4.66;78.14;101697.02;1639172;85;25894;-61
2021/12/17 04:27:22;;;;;;;15.68;9.70;;;;;;;4.63;77.71;101693.16;1623067;87;26779;-62
2021/12/17 04:29:51;;;;;;;17.17;9.45;;;;;;;4.56;77.80;101683.75;1616647;88;25757;-61
2021/12/17 04:32:22;;;;;;;16.77;9.60;;;;;;;4.56;78.09;101691.26;1610016;87;28543;-61
2021/12/17 04:34:51;;;;;;;13.55;8.40;;;;;;;4.59;77.99;101684.45;1670541;84;25782;-61
2021/12/17 04:37:19;;;;;;;18.07;8.90;;;;;;;4.63;77.92;101682.02;1661549;85;25779;-61
2021/12/17 04:39:54;;;;;;;15.40;9.25;;;;;;;4.65;78.04;101677.48;1665906;84;26270;-61
2021/12/17 04:42:35;;;;;;;12.60;8.65;;;;;;;4.66;78.14;101689.03;1665392;84;26115;-61
2021/12/17 04:44:57;;;;;;;13.60;9.15;;;;;;;4.66;77.99;101679.70;1679217;85;27818;-61
2021/12/17 04:58:30;;;;;;;13.68;8.48;;;;;;;4.70;77.83;101671.92;1547550;89;28226;-61
2021/12/17 05:00:58;;;;;;;15.88;9.23;;;;;;;4.70;77.57;101666.14;1639887;86;25889;-61
2021/12/17 05:03:27;;;;;;;14.05;8.88;;;;;;;4.69;77.59;101667.53;1635163;85;25765;-61
2021/12/17 05:05:56;;;;;;;10.13;8.15;;;;;;;4.66;77.26;101662.38;1618968;86;26408;-61
2021/12/17 05:08:25;;;;;;;14.53;8.33;;;;;;;4.60;77.02;101665.31;1661865;85;25754;-61
2021/12/17 05:11:18;;;;;;;18.15;9.20;;;;;;;4.57;77.17;101658.34;1626904;86;28206;-61
2021/12/17 05:19:18;;;;;;;11.93;8.90;;;;;;;4.52;77.23;101647.06;1637123;85;26109;-61
2021/12/17 05:21:37;;;;;;;15.53;9.63;;;;;;;4.47;77.01;101652.61;1659165;84;25530;-61
2021/12/17 05:24:07;;;;;;;12.55;8.33;;;;;;;4.39;77.02;101650.31;1654282;84;27532;-62
2021/12/17 05:26:37;;;;;;;14.45;8.53;;;;;;;4.38;77.32;101648.58;1644547;85;25741;-62
2021/12/17 05:29:09;;;;;;;13.62;8.95;;;;;;;4.38;77.38;101645.92;1642667;84;25859;-62
2021/12/17 05:31:39;;;;;;;16.60;7.62;;;;;;;4.41;77.54;101646.23;1642503;84;26157;-62
2021/12/17 05:34:08;;;;;;;13.88;7.95;;;;;;;4.46;77.69;101649.55;1655818;84;25900;-62
2021/12/17 05:36:36;;;;;;;11.50;7.72;;;;;;;4.49;77.46;101645.88;1650120;85;28204;-62
2021/12/17 05:39:07;;;;;;;12.90;8.43;;;;;;;4.48;77.41;101640.99;1649165;84;25867;-61
2021/12/17 05:41:36;;;;;;;11.80;7.33;;;;;;;4.47;77.39;101641.08;1621321;86;25732;-61
2021/12/17 05:44:22;;;;;;;19.95;9.45;;;;;;;4.47;77.35;101645.07;1611011;86;26135;-61
2021/12/17 05:46:49;;;;;;;14.40;8.68;;;;;;;4.42;77.36;101644.45;1641653;86;26126;-61
2021/12/17 05:49:23;;;;;;;15.70;8.35;;;;;;;4.42;77.55;101637.30;1652245;84;27556;-61
2021/12/17 05:51:51;;;;;;;17.35;8.58;;;;;;;4.45;77.73;101638.50;1666151;84;25796;-61
2021/12/17 05:54:19;;;;;;;19.30;8.78;;;;;;;4.47;77.73;101639.30;1627050;87;25948;-60
2021/12/17 05:56:51;;;;;;;18.10;9.08;;;;;;;4.48;77.57;101640.14;1636261;87;26299;-61
2021/12/17 05:59:19;;;;;;;14.28;7.78;;;;;;;4.51;77.58;101644.00;1642436;86;25869;-60
2021/12/17 06:01:46;;;;;;;13.98;8.20;;;;;;;4.51;77.25;101650.18;1633888;86;27522;-61
2021/12/17 06:04:14;;;;;;;14.78;7.87;;;;;;;4.49;77.02;101645.88;1650091;85;25853;-61
2021/12/17 06:06:54;;;;;;;13.05;8.00;;;;;;;4.48;76.89;101645.47;1648604;86;25892;-61
2021/12/17 06:09:21;;;;;;;14.87;8.00;;;;;;;4.44;76.93;101645.25;1645055;86;26097;-61
2021/12/17 06:11:48;;;;;;;17.80;7.65;;;;;;;4.44;76.75;101641.25;1628945;86;25811;-61
2021/12/17 06:14:17;;;;;;;20.57;9.68;;;;;;;4.37;76.55;101630.87;1658275;85;27485;-61
2021/12/17 06:16:44;;;;;;;14.33;8.18;;;;;;;4.38;76.71;101636.59;1653770;86;25847;-61
2021/12/17 06:19:17;;;;;;;16.45;9.05;;;;;;;4.40;76.48;101635.18;1663873;84;26262;-60
2021/12/17 06:21:42;;;;;;;18.40;7.83;;;;;;;4.41;76.41;101634.73;1647603;85;26294;-61
2021/12/17 06:24:09;;;;;;;22.95;9.05;;;;;;;4.42;76.59;101642.63;1632688;87;25860;-61
2021/12/17 06:26:36;;;;;;;13.13;6.85;;;;;;;4.46;76.79;101636.23;1632843;86;27516;-60
2021/12/17 06:29:05;;;;;;;14.33;8.23;;;;;;;4.50;76.50;101644.45;1636866;86;25881;-61
2021/12/17 06:31:35;;;;;;;16.95;8.53;;;;;;;4.51;75.85;101659.50;1655440;86;25532;-61
2021/12/17 06:34:04;;;;;;;11.20;6.70;;;;;;;4.51;76.07;101652.84;1663462;85;26139;-61
2021/12/17 06:36:31;;;;;;;15.50;6.90;;;;;;;4.53;75.83;101652.30;1653810;84;25889;-62
2021/12/17 06:38:59;;;;;;;15.35;7.78;;;;;;;4.56;75.90;101654.44;1655409;85;27438;-62
2021/12/17 06:41:26;;;;;;;19.80;6.50;;;;;;;4.60;76.01;101654.20;1663304;85;25755;-61
2021/12/17 06:43:58;;;;;;;13.60;6.50;;;;;;;4.62;75.78;101654.13;1638092;85;25777;-61
2021/12/17 06:46:53;;;;;;;14.90;6.42;;;;;;;4.64;75.46;101651.77;1650974;86;26161;-61
2021/12/17 06:49:22;;;;;;;12.15;6.12;;;;;;;4.68;75.15;101652.47;1658015;85;26022;-61
2021/12/17 06:54:57;;;;;;;11.12;6.20;;;;;;;4.68;74.22;101660.02;1646642;86;25902;-61
2021/12/17 07:00:46;;;;;;;18.00;6.53;;;;;;;4.59;74.57;101667.59;1657662;84;26064;-61
2021/12/17 07:09:32;;;;;;;14.95;7.10;;;;;;;4.58;74.82;101668.07;1557768;90;25829;-61
2021/12/17 07:17:07;;;;;;;15.30;7.58;;;;;;;4.57;74.43;101665.01;1601683;86;26052;-61
2021/12/17 07:22:44;;;;;;;18.37;7.10;;;;;;;4.58;74.74;101669.41;1640510;84;25852;-61
2021/12/17 07:35:43;;;;;;;23.42;9.08;;;;;;;4.66;74.25;101660.56;1643731;85;25800;-62
2021/12/17 07:40:56;;;;;;;16.65;8.75;;;;;;;4.62;74.31;101655.45;1647430;85;26195;-62
2021/12/17 07:43:30;;;;;;;16.70;7.97;;;;;;;4.61;74.28;101653.72;1655845;84;25807;-61
2021/12/17 07:45:59;;;;;;;15.63;7.78;;;;;;;4.60;74.20;101650.66;1640872;85;27487;-62
2021/12/17 07:48:27;;;;;;;14.40;7.87;;;;;;;4.61;74.27;101655.05;1655497;85;25775;-61
2021/12/17 07:51:02;;;;;;;17.85;7.83;;;;;;;4.59;74.12;101653.81;1634371;85;26520;-61
2021/12/17 07:53:49;;;;;;;13.50;7.62;;;;;;;4.59;74.26;101654.26;1653590;86;26790;-62
2021/12/17 07:56:22;;;;;;;19.90;9.23;;;;;;;4.59;74.30;101650.27;1658909;84;26504;-61
2021/12/17 07:58:49;;;;;;;15.63;6.17;;;;;;;4.58;74.02;101646.75;1626336;85;27509;-62
2021/12/17 08:01:16;;;;;;;12.75;6.05;;;;;;;4.60;73.70;101654.20;1662298;84;25833;-62
2021/12/17 08:03:45;;;;;;;18.75;7.00;;;;;;;4.64;73.47;101656.25;1679361;84;25788;-62
2021/12/17 08:06:18;;;;;;;11.70;6.67;;;;;;;4.65;73.53;101658.83;1652664;85;26126;-62
2021/12/17 08:08:53;;;;;;;16.52;6.35;;;;;;;4.67;72.90;101664.07;1653403;85;25856;-62
2021/12/17 08:11:22;;;;;;;16.87;7.42;;;;;;;4.66;73.45;101669.89;1655324;85;27807;-61
2021/12/17 08:13:52;;;;;;;16.93;8.68;;;;;;;4.68;73.22;101671.13;1650296;85;25970;-62
2021/12/17 08:19:08;;;;;;;13.78;8.30;;;;;;;4.61;73.32;101671.93;1643277;85;26161;-62
2021/12/17 08:32:06;;;;;;;15.13;6.72;;;;;;;4.62;73.48;101685.62;1620391;87;26210;-61
2021/12/17 08:34:35;;;;;;;17.82;8.05;;;;;;;4.62;73.27;101677.63;1631309;86;25723;-62
2021/12/17 08:37:05;;;;;;;12.85;5.97;;;;;;;4.65;73.64;101668.16;1621986;86;28295;-62
2021/12/17 08:39:32;;;;;;;15.78;6.55;;;;;;;4.69;73.53;101671.53;1634876;85;25811;-62
2021/12/17 08:42:03;;;;;;;16.37;6.08;;;;;;;4.71;72.93;101676.33;1623547;86;25822;-62
2021/12/17 08:44:31;;;;;;;20.02;6.17;;;;;;;4.71;73.16;101666.99;1619901;87;26877;-61
2021/12/17 08:47:16;;;;;;;21.75;6.85;;;;;;;4.70;72.95;101663.48;1652637;85;25899;-62
2021/12/17 08:49:44;;;;;;;17.35;6.80;;;;;;;4.73;72.82;101666.91;1662770;83;28173;-62
2021/12/17 08:52:13;;;;;;;18.15;7.75;;;;;;;4.72;72.99;101663.84;1662806;83;25859;-62
2021/12/17 08:54:41;;;;;;;25.20;7.28;;;;;;;4.74;73.07;101653.97;1643465;85;25504;-62
2021/12/17 08:57:09;;;;;;;16.75;6.95;;;;;;;4.80;73.15;101657.66;1636322;86;26092;-62
2021/12/17 08:59:39;;;;;;;15.45;7.35;;;;;;;4.84;73.01;101660.58;1651276;84;26122;-62
2021/12/17 09:02:14;;;;;;;24.55;7.17;;;;;;;4.84;72.20;101649.91;1648259;84;27521;-62
2021/12/17 09:04:43;;;;;;;16.17;6.45;;;;;;;4.78;71.99;101649.75;1661750;84;25896;-62
2021/12/17 09:07:14;;;;;;;15.45;6.72;;;;;;;4.74;71.97;101640.64;1640618;86;26030;-62
2021/12/17 09:09:44;;;;;;;12.28;6.62;;;;;;;4.73;72.06;101638.47;1675416;84;26135;-62
2021/12/17 09:12:27;;;;;;;16.45;5.95;;;;;;;4.75;71.90;101647.22;1671590;84;25764;-62
2021/12/17 09:14:56;;;;;;;14.73;5.72;;;;;;;4.77;72.06;101641.35;1651023;85;27509;-62
2021/12/17 09:17:35;;;;;;;12.43;6.15;;;;;;;4.82;72.03;101630.45;1585370;88;25910;-62
2021/12/17 09:24:03;;;;;;;16.45;6.25;;;;;;;4.95;71.85;101629.36;1629225;84;25924;-61
2021/12/17 09:26:35;;;;;;;11.65;5.45;;;;;;;5.05;72.04;101632.44;1646644;85;25899;-62
2021/12/17 09:29:03;;;;;;;14.95;6.58;;;;;;;5.13;72.14;101620.89;1638240;85;27517;-62
2021/12/17 09:31:30;;;;;;;16.50;6.97;;;;;;;5.20;71.66;101615.63;1645220;85;25957;-61
2021/12/17 09:33:57;;;;;;;16.37;7.20;;;;;;;5.22;71.80;101603.53;1633146;86;25777;-61
2021/12/17 09:36:24;;;;;;;12.20;5.37;;;;;;;5.20;70.75;101614.78;1658087;84;26103;-62
2021/12/17 09:38:52;;;;;;;13.88;6.20;;;;;;;5.18;70.57;101609.50;1680892;84;25734;-61
2021/12/17 09:41:23;;;;;;;11.22;5.53;;;;;;;5.24;70.56;101610.53;1670592;84;28298;-61
2021/12/17 09:43:50;;;;;;;15.95;6.50;;;;;;;5.26;70.10;101604.62;1665586;84;25881;-61
2021/12/17 09:46:17;;;;;;;16.73;6.12;;;;;;;5.37;69.84;101600.52;1637463;86;25782;-61
2021/12/17 09:48:47;;;;;;;10.78;6.50;;;;;;;5.44;69.83;101601.91;1628257;86;26106;-61
2021/12/17 09:51:16;;;;;;;11.68;5.30;;;;;;;5.43;69.45;101593.52;1646986;84;25764;-61
2021/12/17 09:53:45;;;;;;;11.20;5.92;;;;;;;5.42;69.83;101595.34;1613164;87;28202;-61
2021/12/17 09:56:12;;;;;;;14.38;6.22;;;;;;;5.45;69.98;101592.97;1607008;88;26595;-61
2021/12/17 09:58:41;;;;;;;10.78;5.47;;;;;;;5.42;69.91;101605.16;1635285;85;25776;-61
2021/12/17 10:01:08;;;;;;;14.40;6.10;;;;;;;5.39;70.12;101597.31;1646907;85;26834;-61
2021/12/17 10:03:35;;;;;;;12.10;5.58;;;;;;;5.35;69.93;101594.40;1652886;86;26020;-61
2021/12/17 10:06:02;;;;;;;13.03;5.12;;;;;;;5.32;70.20;101597.65;1659431;84;27538;-61
2021/12/17 10:08:29;;;;;;;15.80;6.20;;;;;;;5.36;70.53;101594.34;1657694;86;25815;-61
2021/12/17 10:11:04;;;;;;;15.05;5.78;;;;;;;5.40;70.78;101593.22;1657211;84;25473;-61
2021/12/17 10:13:33;;;;;;;12.23;4.53;;;;;;;5.38;70.56;101583.58;1659850;86;26094;-61
2021/12/17 10:16:10;;;;;;;11.12;4.83;;;;;;;5.41;70.39;101577.59;1661176;85;25771;-61
2021/12/17 10:18:44;;;;;;;10.65;4.97;;;;;;;5.39;70.43;101585.30;1649796;85;27489;-61
2021/12/17 10:21:24;;;;;;;;;;;;;;;5.39;69.93;101586.15;1639602;87;25879;-61
2021/12/17 10:23:54;;;;;;;11.40;4.85;;;;;;;5.31;69.67;101577.70;1660286;84;25754;-60
2021/12/17 10:26:24;;;;;;;20.50;7.95;;;;;;;5.26;70.01;101575.77;1608198;88;26219;-60
2021/12/17 10:28:59;;;;;;;15.28;5.42;;;;;;;5.23;69.83;101575.91;1630194;85;25753;-60
2021/12/17 10:31:29;;;;;;;25.23;14.78;;;;;;;5.20;69.65;101565.43;1634961;86;28114;-60
2021/12/17 10:34:04;;;;;;;6.95;3.58;;;;;;;5.17;69.86;101565.09;1640304;87;26447;-61
2021/12/17 10:36:37;;;;;;;9.95;3.83;;;;;;;5.17;69.56;101558.42;1641064;86;25737;-61
2021/12/17 10:39:30;;;;;;;11.55;4.53;;;;;;;5.12;69.44;101564.00;1644270;85;26238;-60
2021/12/17 10:41:56;;;;;;;13.72;4.97;;;;;;;5.12;69.61;101561.82;1626484;86;25775;-61
2021/12/17 10:44:23;;;;;;;10.50;3.83;;;;;;;5.08;69.49;101553.58;1647150;86;27494;-61
2021/12/17 10:47:14;;;;;;;14.35;5.03;;;;;;;5.10;69.82;101555.25;1653021;85;25790;-60
2021/12/17 10:49:36;;;;;;;12.50;4.00;;;;;;;5.07;69.46;101555.40;1622533;85;25756;-62
2021/12/17 10:52:14;;;;;;;13.03;4.85;;;;;;;5.03;69.58;101548.97;1633712;86;26136;-62
2021/12/17 10:54:37;;;;;;;15.45;6.17;;;;;;;5.04;69.81;101550.70;1661241;84;25786;-62
2021/12/17 10:57:08;;;;;;;13.38;4.05;;;;;;;4.99;69.94;101546.95;1656271;85;27548;-61
2021/12/17 10:59:37;;;;;;;12.47;4.72;;;;;;;5.02;70.04;101541.42;1676195;84;25739;-60
2021/12/17 11:02:11;;;;;;;13.13;5.03;;;;;;;5.01;70.21;101535.25;1656888;84;25677;-61
2021/12/17 11:04:51;;;;;;;9.50;3.83;;;;;;;4.98;69.92;101536.73;1666549;85;26122;-61
2021/12/17 11:07:19;;;;;;;13.62;5.75;;;;;;;4.98;69.91;101536.73;1657411;86;25975;-61
2021/12/17 11:10:01;;;;;;;15.38;5.37;;;;;;;4.99;70.33;101539.79;1663752;85;28221;-61
2021/12/17 11:12:40;;;;;;;11.83;4.22;;;;;;;4.98;70.30;101532.73;1668976;84;25844;-61
2021/12/17 11:15:26;;;;;;;8.85;4.20;;;;;;;5.03;70.12;101531.64;1680481;84;25808;-62
2021/12/17 11:17:58;;;;;;;9.70;5.00;;;;;;;5.01;70.20;101527.73;1684343;84;26085;-61
2021/12/17 11:20:29;;;;;;;11.70;4.70;;;;;;;5.03;70.01;101534.30;1681714;84;25807;-62
2021/12/17 11:23:04;;;;;;;10.58;3.40;;;;;;;5.01;69.57;101531.25;1657205;85;27477;-62
2021/12/17 11:25:29;;;;;;;12.75;4.12;;;;;;;4.94;69.21;101530.31;1675141;83;25521;-61
2021/12/17 11:27:57;;;;;;;14.55;5.87;;;;;;;4.89;69.32;101531.87;1674344;85;25828;-61
2021/12/17 11:30:32;;;;;;;10.05;4.60;;;;;;;4.89;69.40;101533.22;1653717;85;27345;-61
2021/12/17 11:33:01;;;;;;;9.90;3.72;;;;;;;4.91;69.54;101526.00;1616957;87;25833;-62
2021/12/17 11:35:31;;;;;;;9.10;3.50;;;;;;;4.87;69.51;101524.46;1613960;87;27263;-62
2021/12/17 11:38:06;;;;;;;11.05;4.15;;;;;;;4.82;69.63;101524.70;1621492;87;26190;-61
2021/12/17 11:40:40;;;;;;;17.10;5.28;;;;;;;4.81;69.95;101518.97;1607797;87;25672;-62
2021/12/17 11:43:38;;;;;;;10.75;4.10;;;;;;;4.83;69.94;101517.09;1631713;85;27259;-61
2021/12/17 11:46:09;;;;;;;19.57;8.55;;;;;;;4.86;70.22;101524.91;1589098;88;25863;-61
2021/12/17 11:48:37;;;;;;;11.57;4.33;;;;;;;4.87;70.03;101509.80;1610611;86;28231;-61
2021/12/17 11:51:15;;;;;;;13.05;3.52;;;;;;;4.88;69.74;101511.52;1609906;87;25788;-61
2021/12/17 11:54:05;;;;;;;11.85;4.00;;;;;;;4.86;69.33;101515.58;1610168;86;25859;-61
2021/12/17 11:56:53;;;;;;;13.45;4.28;;;;;;;4.90;69.47;101517.61;1642369;85;25820;-61
2021/12/17 11:59:32;;;;;;;11.78;4.33;;;;;;;4.92;69.45;101518.89;1655275;85;25819;-61
2021/12/17 12:02:22;;;;;;;17.12;4.60;;;;;;;4.85;69.07;101506.34;1656230;86;27880;-61
2021/12/17 12:05:01;;;;;;;12.58;3.60;;;;;;;4.83;69.30;101509.09;1656663;86;25804;-61
2021/12/17 12:07:33;;;;;;;13.45;4.60;;;;;;;4.83;69.30;101502.44;1660241;85;25908;-62
2021/12/17 12:10:12;;;;;;;11.95;4.42;;;;;;;4.82;69.69;101509.16;1656820;86;26197;-61
2021/12/17 12:12:49;;;;;;;11.25;3.45;;;;;;;4.84;69.91;101502.80;1661903;85;25910;-61
2021/12/17 12:15:27;;;;;;;17.00;4.08;;;;;;;4.81;70.10;101503.44;1665084;84;27539;-61
2021/12/17 12:18:08;;;;;;;8.03;3.17;;;;;;;4.80;70.22;101509.25;1663700;84;26699;-61
2021/12/17 12:20:52;;;;;;;10.15;3.95;;;;;;;4.80;70.10;101502.59;1667268;85;25935;-61
2021/12/17 12:23:38;;;;;;;8.45;3.60;;;;;;;4.72;70.03;101502.58;1662507;84;26966;-61
2021/12/17 12:26:17;;;;;;;11.43;3.50;;;;;;;4.69;70.10;101499.16;1653703;84;25884;-62
2021/12/17 12:28:53;;;;;;;9.98;3.20;;;;;;;4.65;70.19;101506.06;1657544;86;27590;-61
2021/12/17 12:31:37;;;;;;;12.88;3.15;;;;;;;4.65;70.56;101503.40;1658908;84;25897;-61
2021/12/17 12:34:18;;;;;;;8.10;3.00;;;;;;;4.67;71.01;101501.03;1658566;86;25803;-61
2021/12/17 12:37:09;;;;;;;10.90;3.72;;;;;;;4.65;71.00;101508.24;1658526;84;26144;-62
2021/12/17 12:39:54;;;;;;;12.47;3.50;;;;;;;4.61;71.00;101504.48;1662791;84;26042;-61
2021/12/17 12:42:29;;;;;;;13.85;3.85;;;;;;;4.54;70.92;101509.26;1632209;86;29623;-60
2021/12/17 12:45:07;;;;;;;8.90;3.72;;;;;;;4.52;71.29;101515.16;1654043;85;25637;-61
2021/12/17 12:47:44;;;;;;;9.65;3.17;;;;;;;4.47;71.16;101507.41;1617936;88;25941;-61
2021/12/17 12:50:15;;;;;;;12.93;3.50;;;;;;;4.46;71.23;101504.80;1652735;85;27487;-61
2021/12/17 12:52:47;;;;;;;18.05;6.58;;;;;;;4.40;70.99;101499.30;1654092;84;25848;-61
2021/12/17 12:55:37;;;;;;;20.55;4.60;;;;;;;4.39;71.21;101497.61;1646069;87;27116;-61
2021/12/17 12:58:17;;;;;;;11.93;3.27;;;;;;;4.43;71.19;101499.16;1599967;87;26486;-62
2021/12/17 13:00:56;;;;;;;7.25;3.40;;;;;;;4.39;70.54;101507.78;1602561;88;25844;-62
2021/12/17 13:03:29;;;;;;;9.48;3.70;;;;;;;4.35;70.69;101512.02;1599335;87;26048;-62
2021/12/17 13:05:59;;;;;;;9.08;3.55;;;;;;;4.36;70.84;101509.26;1602825;87;25819;-62
2021/12/17 13:08:30;;;;;;;9.33;3.72;;;;;;;4.37;70.87;101515.47;1607290;88;27532;-62
2021/12/17 13:11:00;;;;;;;9.93;4.12;;;;;;;4.40;70.80;101521.95;1606856;85;25783;-62
2021/12/17 13:13:37;;;;;;;10.50;3.55;;;;;;;4.40;70.12;101508.63;1652845;84;25976;-62
2021/12/17 13:16:19;;;;;;;15.13;4.00;;;;;;;4.41;70.52;101517.02;1639393;86;26834;-63
2021/12/17 13:21:41;;;;;;;12.82;3.52;;;;;;;4.43;70.46;101518.30;1641434;85;27501;-62
2021/12/17 13:24:12;;;;;;;12.40;4.45;;;;;;;4.36;70.55;101513.73;1663079;84;26696;-60
2021/12/17 13:26:38;;;;;;;17.55;5.08;;;;;;;4.29;70.62;101526.98;1679634;84;25799;-60
2021/12/17 13:29:13;;;;;;;15.43;4.10;;;;;;;4.27;70.89;101523.05;1680584;84;26821;-61
2021/12/17 13:31:55;;;;;;;11.88;5.42;;;;;;;4.27;71.04;101519.53;1667740;84;25851;-61
2021/12/17 13:34:45;;;;;;;11.83;4.30;;;;;;;4.25;71.12;101519.62;1671285;84;27735;-61
2021/12/17 13:37:19;;;;;;;15.20;5.37;;;;;;;4.27;71.31;101524.86;1644056;84;26340;-61
2021/12/17 13:40:04;;;;;;;15.93;6.03;;;;;;;4.25;71.26;101517.41;1641847;85;25544;-61
2021/12/17 13:45:35;;;;;;;16.30;5.85;;;;;;;4.19;71.36;101519.91;1611180;87;25797;-61
2021/12/17 13:48:04;;;;;;;17.20;6.45;;;;;;;4.11;71.50;101527.41;1610530;86;28264;-61
2021/12/17 13:50:44;;;;;;;14.18;4.92;;;;;;;4.02;71.68;101525.59;1652897;84;25489;-61
2021/12/17 13:53:15;;;;;;;10.08;3.77;;;;;;;4.00;71.95;101518.14;1644171;85;25858;-61
2021/12/17 13:55:48;;;;;;;6.97;3.42;;;;;;;4.05;71.96;101523.24;1670298;84;26061;-61
2021/12/17 13:58:24;;;;;;;9.83;4.55;;;;;;;4.06;71.99;101524.52;1685824;84;25946;-61
2021/12/17 14:00:57;;;;;;;16.12;5.40;;;;;;;4.00;71.87;101519.95;1677874;84;27446;-61
2021/12/17 14:03:31;;;;;;;7.60;3.87;;;;;;;4.02;72.04;101525.59;1685642;84;25747;-61
2021/12/17 14:06:16;;;;;;;17.60;4.90;;;;;;;4.01;72.05;101515.88;1671079;84;25741;-61
2021/12/17 14:08:43;;;;;;;9.70;4.83;;;;;;;4.02;72.08;101522.09;1687513;84;26092;-61
2021/12/17 14:11:29;;;;;;;11.75;4.08;;;;;;;3.94;72.29;101517.61;1672113;84;25841;-61
2021/12/17 14:13:55;;;;;;;10.23;4.10;;;;;;;3.91;72.57;101522.14;1680442;84;29719;-62
2021/12/17 14:16:34;;;;;;;11.30;4.90;;;;;;;3.87;72.70;101523.69;1687769;84;25807;-61
2021/12/17 14:19:02;;;;;;;16.20;5.90;;;;;;;3.86;72.69;101533.94;1672654;84;25884;-61
2021/12/17 14:21:32;;;;;;;17.92;5.90;;;;;;;3.84;72.87;101525.16;1675768;84;26741;-61
2021/12/17 14:24:00;;;;;;;16.30;5.75;;;;;;;3.81;73.13;101529.32;1680670;84;25917;-61
2021/12/17 14:26:31;;;;;;;13.15;6.40;;;;;;;3.81;73.17;101527.98;1667577;84;27441;-61
2021/12/17 14:29:12;;;;;;;13.48;4.97;;;;;;;3.76;73.29;101534.38;1679290;84;25846;-61
2021/12/17 14:31:39;;;;;;;15.15;5.55;;;;;;;3.70;73.74;101530.69;1660503;84;25517;-61
2021/12/17 14:34:09;;;;;;;8.78;4.80;;;;;;;3.73;73.77;101533.19;1673356;84;26850;-61
2021/12/17 14:36:41;;;;;;;11.97;4.53;;;;;;;3.72;73.65;101538.59;1637903;86;25766;-62
2021/12/17 14:39:18;;;;;;;10.23;4.42;;;;;;;3.70;73.74;101537.34;1649064;86;28326;-61